Time;durP1;ratioP1;P1;durP2;ratioP2;P2;SDS_P1;SDS_P2;PMS_P1;PMS_P2;Temp;Humidity;BMP_temperature;BMP_pressure;BME280_temperature;BME280_humidity;BME280_pressure;Samples;Min_cycle;Max_cycle;Signal;HPM_P1;HPM_P2
2021/09/21 00:00:40;;;;;;;8.93;7.45;;;;;;;8.73;81.34;97208.31;1687011;84;20958;-82
2021/09/21 00:03:06;;;;;;;7.92;6.83;;;;;;;8.66;81.28;97209.88;1692312;84;21092;-81
2021/09/21 00:05:32;;;;;;;9.80;8.03;;;;;;;8.60;81.09;97210.45;1704278;83;21041;-82
2021/09/21 00:07:58;;;;;;;10.10;7.83;;;;;;;8.52;80.93;97211.70;1660884;84;21064;-81
2021/09/21 00:10:23;;;;;;;8.45;6.75;;;;;;;8.45;80.91;97214.53;1650566;84;21073;-82
2021/09/21 00:12:49;;;;;;;9.53;7.55;;;;;;;8.37;81.10;97219.16;1683695;84;21069;-82
2021/09/21 00:15:17;;;;;;;10.23;7.55;;;;;;;8.30;81.08;97220.21;1692400;83;21463;-81
2021/09/21 00:17:43;;;;;;;8.88;7.12;;;;;;;8.19;80.80;97217.02;1693860;84;21072;-81
2021/09/21 00:20:10;;;;;;;7.45;6.25;;;;;;;8.09;80.86;97213.17;1701149;83;21473;-81
2021/09/21 00:22:36;;;;;;;8.03;6.17;;;;;;;8.00;80.95;97212.29;1682959;83;21181;-81
2021/09/21 00:25:02;;;;;;;7.87;6.15;;;;;;;7.95;80.90;97211.08;1680318;84;21095;-81
2021/09/21 00:27:28;;;;;;;8.03;6.03;;;;;;;7.89;80.89;97209.08;1678883;83;21049;-81
2021/09/21 00:29:54;;;;;;;8.78;6.20;;;;;;;7.82;80.86;97212.25;1687921;84;20962;-81
2021/09/21 00:32:25;;;;;;;9.40;6.87;;;;;;;7.74;80.92;97213.44;1688753;83;21446;-81
2021/09/21 00:34:47;;;;;;;8.93;6.42;;;;;;;7.64;80.69;97207.96;1681382;84;21047;-82
2021/09/21 00:37:14;;;;;;;8.65;6.75;;;;;;;7.55;81.04;97207.06;1684359;84;21018;-81
2021/09/21 00:39:41;;;;;;;8.60;5.92;;;;;;;7.47;81.17;97210.83;1665507;84;21080;-82
2021/09/21 00:42:07;;;;;;;6.47;5.58;;;;;;;7.41;80.97;97212.70;1655463;84;21121;-81
2021/09/21 00:44:35;;;;;;;7.10;5.70;;;;;;;7.35;80.89;97210.20;1685911;84;21060;-81
2021/09/21 00:47:03;;;;;;;6.85;6.00;;;;;;;7.31;80.90;97205.44;1689093;83;21033;-81
2021/09/21 00:49:29;;;;;;;6.95;5.90;;;;;;;7.27;81.08;97213.95;1689699;84;21021;-81
2021/09/21 00:51:56;;;;;;;6.28;5.62;;;;;;;7.21;81.28;97210.65;1700622;83;21299;-81
2021/09/21 00:54:22;;;;;;;7.17;5.83;;;;;;;7.14;81.20;97210.86;1688778;83;21095;-81
2021/09/21 00:56:47;;;;;;;7.60;5.42;;;;;;;7.05;81.11;97211.23;1699598;84;20996;-82
2021/09/21 00:59:13;;;;;;;5.55;4.55;;;;;;;6.99;81.15;97206.60;1674283;84;21535;-81
2021/09/21 01:01:39;;;;;;;6.22;4.37;;;;;;;6.92;81.33;97207.64;1694810;84;21443;-81
2021/09/21 01:04:05;;;;;;;7.30;5.47;;;;;;;6.89;81.39;97201.47;1688688;84;21066;-81
2021/09/21 01:06:33;;;;;;;5.90;5.30;;;;;;;6.86;81.45;97203.05;1640998;86;21044;-81
2021/09/21 01:08:58;;;;;;;5.97;5.10;;;;;;;6.82;81.21;97211.19;1614619;86;21092;-81
2021/09/21 01:11:24;;;;;;;6.10;4.50;;;;;;;6.75;81.17;97210.12;1639581;87;21017;-81
2021/09/21 01:13:50;;;;;;;5.30;3.95;;;;;;;6.66;81.52;97206.58;1633326;87;21382;-81
2021/09/21 01:16:16;;;;;;;5.85;3.75;;;;;;;6.57;81.36;97204.35;1624630;86;21069;-81
2021/09/21 01:18:42;;;;;;;4.25;3.27;;;;;;;6.54;81.45;97205.11;1695144;84;21095;-81
2021/09/21 01:21:10;;;;;;;5.00;3.60;;;;;;;6.52;81.33;97205.25;1660933;84;21062;-81
2021/09/21 01:23:49;;;;;;;6.28;4.33;;;;;;;6.52;81.34;97203.14;1690292;84;21416;-81
2021/09/21 01:26:16;;;;;;;5.75;4.50;;;;;;;6.48;81.38;97205.16;1691383;84;21390;-82
2021/09/21 01:28:42;;;;;;;5.08;3.95;;;;;;;6.44;81.49;97207.68;1687940;83;21483;-82
2021/09/21 01:31:08;;;;;;;5.62;3.80;;;;;;;6.39;81.39;97207.75;1702929;83;20989;-81
2021/09/21 01:33:33;;;;;;;4.72;3.17;;;;;;;6.32;81.39;97202.30;1668882;84;21063;-81
2021/09/21 01:36:00;;;;;;;2.85;2.35;;;;;;;6.32;81.69;97203.59;1677521;84;21455;-81
2021/09/21 01:38:26;;;;;;;4.03;3.25;;;;;;;6.33;81.59;97207.80;1684653;84;21003;-81
2021/09/21 01:40:51;;;;;;;2.62;2.30;;;;;;;6.29;81.52;97200.81;1687857;84;20976;-81
2021/09/21 01:43:17;;;;;;;3.33;2.52;;;;;;;6.24;81.56;97203.46;1694052;84;21088;-81
2021/09/21 01:45:43;;;;;;;3.95;3.00;;;;;;;6.19;81.72;97208.22;1688630;84;21032;-81
2021/09/21 01:48:08;;;;;;;3.30;2.20;;;;;;;6.10;82.00;97194.81;1692535;83;21434;-81
2021/09/21 01:50:52;;;;;;;2.35;2.02;;;;;;;6.02;81.98;97196.79;1700608;83;21039;-81
2021/09/21 02:00:59;;;;;;;3.25;2.83;;;;;;;5.96;82.52;97205.86;1681661;83;21454;-81
2021/09/21 02:03:25;;;;;;;3.60;2.67;;;;;;;5.95;82.71;97208.09;1681821;84;21148;-81
2021/09/21 02:05:51;;;;;;;5.08;3.08;;;;;;;5.92;82.66;97201.92;1692537;84;21055;-81
2021/09/21 02:08:17;;;;;;;3.47;2.77;;;;;;;5.90;83.00;97207.69;1686666;84;21137;-81
2021/09/21 02:10:44;;;;;;;2.20;2.00;;;;;;;5.91;82.85;97209.79;1675051;84;21073;-81
2021/09/21 02:13:09;;;;;;;2.10;1.82;;;;;;;5.90;82.82;97212.84;1684797;84;21082;-81
2021/09/21 02:15:35;;;;;;;4.20;3.25;;;;;;;5.92;82.86;97216.58;1674932;84;21020;-81
2021/09/21 02:18:01;;;;;;;6.35;4.20;;;;;;;5.91;83.02;97223.50;1675072;84;21060;-83
2021/09/21 02:20:28;;;;;;;5.17;4.05;;;;;;;5.92;82.88;97229.48;1702798;84;21391;-81
2021/09/21 02:22:54;;;;;;;5.95;4.00;;;;;;;5.88;82.92;97228.08;1686698;84;21037;-81
2021/09/21 02:25:19;;;;;;;6.70;3.70;;;;;;;5.84;83.08;97230.09;1682451;84;21521;-80
2021/09/21 02:27:45;;;;;;;4.92;3.15;;;;;;;5.83;83.14;97230.22;1696235;84;21108;-81
2021/09/21 02:30:12;;;;;;;4.70;3.83;;;;;;;5.81;83.03;97223.91;1680197;84;21040;-81
2021/09/21 02:32:38;;;;;;;5.33;3.77;;;;;;;5.81;83.26;97222.62;1664496;85;21068;-81
2021/09/21 02:35:04;;;;;;;5.40;4.35;;;;;;;5.81;83.02;97225.67;1688114;84;21077;-81
2021/09/21 02:37:30;;;;;;;6.17;5.05;;;;;;;5.79;83.22;97223.70;1667971;85;21362;-81
2021/09/21 02:39:56;;;;;;;7.47;5.42;;;;;;;5.78;83.50;97224.65;1697067;84;21041;-81
2021/09/21 02:42:21;;;;;;;7.05;4.87;;;;;;;5.77;83.46;97219.97;1678289;84;21487;-81
2021/09/21 02:44:47;;;;;;;7.67;6.60;;;;;;;5.76;83.54;97224.78;1668467;84;21163;-81
2021/09/21 02:47:13;;;;;;;8.13;7.12;;;;;;;5.77;83.66;97226.89;1668864;84;20978;-81
2021/09/21 02:49:39;;;;;;;8.30;7.28;;;;;;;5.80;83.71;97227.44;1696225;84;21518;-81
2021/09/21 02:52:05;;;;;;;9.80;7.55;;;;;;;5.82;83.84;97233.27;1679444;84;21029;-81
2021/09/21 02:54:31;;;;;;;9.40;8.18;;;;;;;5.83;83.90;97236.67;1670321;84;21152;-81
2021/09/21 02:56:57;;;;;;;10.53;8.20;;;;;;;5.82;84.18;97231.98;1662403;84;21095;-81
2021/09/21 02:59:23;;;;;;;11.75;8.23;;;;;;;5.83;84.14;97234.91;1693716;83;21037;-81
2021/09/21 03:01:50;;;;;;;8.80;7.25;;;;;;;5.84;84.17;97233.14;1663107;84;21086;-81
2021/09/21 03:04:35;;;;;;;8.63;6.47;;;;;;;5.88;84.39;97240.98;1691147;83;21047;-81
2021/09/21 03:07:05;;;;;;;8.23;6.92;;;;;;;5.91;84.27;97240.27;1656897;85;21128;-81
2021/09/21 03:17:27;;;;;;;8.80;6.60;;;;;;;5.92;84.22;97251.41;1701410;83;21476;-81
2021/09/21 03:19:58;;;;;;;9.23;6.42;;;;;;;5.91;84.00;97249.30;1703045;84;21093;-81
2021/09/21 03:22:26;;;;;;;8.68;6.55;;;;;;;5.89;83.96;97251.16;1701529;83;21121;-81
2021/09/21 03:24:52;;;;;;;9.98;7.12;;;;;;;5.87;84.07;97256.11;1702364;84;21007;-81
2021/09/21 03:27:18;;;;;;;9.25;7.30;;;;;;;5.84;84.54;97258.45;1689361;84;21021;-81
2021/09/21 03:29:44;;;;;;;7.15;5.83;;;;;;;5.82;84.88;97263.41;1676034;84;21016;-81
2021/09/21 03:32:10;;;;;;;8.43;6.10;;;;;;;5.83;85.19;97268.91;1675726;84;21005;-81
2021/09/21 03:34:38;;;;;;;8.53;5.92;;;;;;;5.84;85.38;97276.52;1700061;84;21007;-81
2021/09/21 03:37:06;;;;;;;7.53;5.25;;;;;;;5.87;85.42;97279.33;1685105;84;21075;-81
2021/09/21 03:39:32;;;;;;;6.03;5.15;;;;;;;5.92;85.45;97283.65;1698711;84;21531;-81
2021/09/21 03:41:58;;;;;;;6.97;5.70;;;;;;;5.97;85.66;97289.22;1684252;84;21032;-81
2021/09/21 03:44:26;;;;;;;7.45;6.50;;;;;;;6.03;85.87;97285.32;1677026;84;21019;-81
2021/09/21 03:46:52;;;;;;;7.65;5.53;;;;;;;6.06;86.21;97285.87;1691333;83;21461;-81
2021/09/21 03:49:17;;;;;;;6.58;4.95;;;;;;;6.10;86.38;97286.41;1658359;83;21012;-81
2021/09/21 03:51:43;;;;;;;6.72;5.42;;;;;;;6.17;86.47;97284.92;1714977;83;21031;-81
2021/09/21 03:54:09;;;;;;;5.65;5.15;;;;;;;6.25;86.41;97277.35;1705776;83;21389;-81
2021/09/21 03:56:36;;;;;;;6.72;5.50;;;;;;;6.35;86.63;97271.75;1714525;83;21024;-81
2021/09/21 03:59:04;;;;;;;6.67;5.97;;;;;;;6.43;86.62;97270.59;1710087;83;20985;-81
2021/09/21 04:01:30;;;;;;;8.90;7.22;;;;;;;6.51;86.62;97279.78;1686583;83;21044;-81
2021/09/21 04:03:56;;;;;;;10.23;7.75;;;;;;;6.58;86.84;97282.16;1686891;84;21032;-81
2021/09/21 04:06:22;;;;;;;8.95;7.55;;;;;;;6.61;86.78;97275.91;1687805;84;20986;-81
2021/09/21 04:08:49;;;;;;;10.03;7.33;;;;;;;6.67;86.76;97282.28;1697301;84;21536;-81
2021/09/21 04:11:14;;;;;;;10.88;8.03;;;;;;;6.73;86.67;97277.89;1672772;83;21335;-81
2021/09/21 04:13:41;;;;;;;12.00;8.63;;;;;;;6.78;86.61;97274.41;1678099;84;20947;-81
2021/09/21 04:16:06;;;;;;;16.62;11.12;;;;;;;6.82;86.55;97277.05;1682517;83;21013;-81
2021/09/21 04:18:32;;;;;;;16.27;13.48;;;;;;;6.86;86.56;97281.02;1702267;84;21032;-81
2021/09/21 04:20:58;;;;;;;17.00;12.95;;;;;;;6.88;86.60;97279.11;1686927;84;21015;-81
2021/09/21 04:23:23;;;;;;;18.32;14.68;;;;;;;6.88;86.64;97275.23;1697494;83;21072;-81
2021/09/21 04:25:49;;;;;;;16.73;14.13;;;;;;;6.87;86.57;97281.36;1688641;83;21007;-81
2021/09/21 04:28:16;;;;;;;17.05;14.10;;;;;;;6.87;86.38;97272.31;1672300;84;21076;-81
2021/09/21 04:30:43;;;;;;;19.27;15.78;;;;;;;6.87;86.29;97268.44;1678436;84;21467;-81
2021/09/21 04:33:10;;;;;;;20.10;15.78;;;;;;;6.88;86.20;97263.61;1661906;84;21104;-81
2021/09/21 04:35:37;;;;;;;20.15;15.23;;;;;;;6.89;86.45;97271.23;1687330;83;21032;-81
2021/09/21 04:38:03;;;;;;;19.77;15.55;;;;;;;6.91;86.57;97274.95;1678897;84;21047;-81
2021/09/21 04:40:29;;;;;;;21.30;15.45;;;;;;;6.90;86.60;97270.27;1687703;84;21060;-81
2021/09/21 04:42:55;;;;;;;21.37;15.60;;;;;;;6.92;86.68;97277.41;1684785;84;21138;-81
2021/09/21 04:45:21;;;;;;;19.00;14.65;;;;;;;6.97;86.70;97273.58;1691933;84;21010;-81
2021/09/21 04:47:47;;;;;;;17.20;13.18;;;;;;;7.00;86.67;97274.16;1678306;84;21037;-81
2021/09/21 04:50:13;;;;;;;17.67;13.85;;;;;;;7.03;86.81;97269.18;1695380;84;20989;-81
2021/09/21 04:52:38;;;;;;;17.67;13.35;;;;;;;7.07;86.79;97270.05;1692362;84;21357;-81
2021/09/21 04:55:06;;;;;;;13.95;12.05;;;;;;;7.09;86.89;97269.43;1692078;83;20975;-81
2021/09/21 04:57:31;;;;;;;15.05;11.63;;;;;;;7.13;87.01;97273.84;1677417;84;21494;-81
2021/09/21 04:59:57;;;;;;;15.45;10.72;;;;;;;7.13;87.05;97277.23;1690268;84;21020;-81
2021/09/21 05:02:23;;;;;;;11.43;9.80;;;;;;;7.17;87.18;97279.91;1681038;84;20978;-81
2021/09/21 05:04:48;;;;;;;11.93;9.58;;;;;;;7.19;87.13;97284.46;1674420;84;21511;-81
2021/09/21 05:07:14;;;;;;;11.35;9.63;;;;;;;7.23;87.30;97284.52;1691053;84;21075;-81
2021/09/21 05:09:40;;;;;;;12.28;9.55;;;;;;;7.27;87.39;97288.11;1660825;84;21035;-81
2021/09/21 05:12:06;;;;;;;10.28;8.93;;;;;;;7.31;87.44;97289.45;1679772;84;21062;-81
2021/09/21 05:14:32;;;;;;;11.12;8.43;;;;;;;7.33;87.42;97284.98;1671256;83;21363;-81
2021/09/21 05:16:59;;;;;;;8.98;7.08;;;;;;;7.39;87.47;97293.47;1697971;83;21701;-81
2021/09/21 05:19:25;;;;;;;11.12;7.37;;;;;;;7.47;87.40;97292.28;1689953;83;21075;-81
2021/09/21 05:21:51;;;;;;;9.53;8.25;;;;;;;7.55;87.71;97297.58;1699960;84;21145;-81
2021/09/21 05:24:16;;;;;;;9.90;8.53;;;;;;;7.65;87.58;97298.86;1667069;84;21479;-81
2021/09/21 05:26:42;;;;;;;10.35;8.45;;;;;;;7.71;87.65;97306.86;1690105;84;21064;-81
2021/09/21 05:29:08;;;;;;;7.83;7.03;;;;;;;7.77;87.73;97308.05;1685426;84;21344;-81
2021/09/21 05:31:34;;;;;;;9.18;6.28;;;;;;;7.84;87.55;97314.31;1689101;84;21048;-81
2021/09/21 05:34:01;;;;;;;8.68;7.08;;;;;;;7.92;87.51;97307.94;1677949;84;21067;-81
2021/09/21 05:36:27;;;;;;;8.98;7.60;;;;;;;8.01;87.46;97314.05;1703247;84;21060;-81
2021/09/21 05:38:52;;;;;;;7.70;6.47;;;;;;;8.06;87.49;97323.00;1682537;84;20985;-81
2021/09/21 05:41:18;;;;;;;7.90;6.83;;;;;;;8.07;87.53;97327.22;1684742;84;21471;-81
2021/09/21 05:43:44;;;;;;;6.83;6.05;;;;;;;8.14;87.61;97333.95;1676073;84;21131;-81
2021/09/21 05:46:10;;;;;;;6.15;4.50;;;;;;;8.22;87.62;97343.09;1644252;86;21069;-81
2021/09/21 05:48:35;;;;;;;7.40;6.03;;;;;;;8.31;87.37;97346.61;1678884;84;20983;-81
2021/09/21 05:51:01;;;;;;;9.63;6.30;;;;;;;8.36;87.24;97342.66;1688199;84;21060;-81
2021/09/21 05:53:27;;;;;;;7.42;6.30;;;;;;;8.43;87.72;97342.39;1688106;83;21048;-81
2021/09/21 05:55:52;;;;;;;9.03;5.58;;;;;;;8.52;87.60;97347.20;1656582;85;21379;-81
2021/09/21 05:58:18;;;;;;;6.15;4.78;;;;;;;8.59;87.58;97351.31;1674564;84;20987;-81
2021/09/21 06:00:44;;;;;;;9.18;7.03;;;;;;;8.64;87.43;97359.48;1679450;84;20957;-81
2021/09/21 06:03:09;;;;;;;15.20;12.18;;;;;;;8.67;87.16;97356.11;1678465;84;21500;-82
2021/09/21 06:05:35;;;;;;;14.07;11.25;;;;;;;8.68;86.66;97342.68;1674974;84;21069;-81
2021/09/21 06:08:01;;;;;;;13.20;10.88;;;;;;;8.67;86.02;97351.41;1683344;83;21014;-81
2021/09/21 06:10:28;;;;;;;13.10;10.08;;;;;;;8.69;86.15;97351.59;1686479;84;21015;-82
2021/09/21 06:12:54;;;;;;;12.65;10.48;;;;;;;8.71;85.34;97352.27;1654507;84;20977;-81
2021/09/21 06:15:20;;;;;;;16.07;11.55;;;;;;;8.74;85.42;97361.52;1669982;84;21533;-81
2021/09/21 06:17:48;;;;;;;12.75;9.78;;;;;;;8.79;85.34;97361.09;1666599;84;21004;-81
2021/09/21 06:20:14;;;;;;;12.70;10.03;;;;;;;8.88;84.54;97355.02;1666403;84;21083;-81
2021/09/21 06:22:42;;;;;;;10.38;9.28;;;;;;;8.94;84.44;97352.64;1678084;84;21059;-81
2021/09/21 06:25:09;;;;;;;11.93;9.00;;;;;;;8.99;84.18;97356.92;1684174;84;20997;-81
2021/09/21 06:27:35;;;;;;;11.30;9.60;;;;;;;9.02;83.75;97351.92;1620290;87;21036;-81
2021/09/21 06:30:04;;;;;;;10.85;8.85;;;;;;;9.02;83.28;97351.92;1643140;85;21044;-81
2021/09/21 06:32:29;;;;;;;10.23;8.95;;;;;;;9.00;83.32;97357.25;1634290;85;21014;-81
2021/09/21 06:34:56;;;;;;;13.28;9.55;;;;;;;9.01;82.46;97361.95;1693053;84;21104;-81
2021/09/21 06:37:22;;;;;;;11.65;8.73;;;;;;;9.06;82.36;97360.20;1698592;83;20988;-81
2021/09/21 06:39:47;;;;;;;11.80;8.55;;;;;;;9.10;81.11;97359.75;1689063;84;21038;-81
2021/09/21 06:42:13;;;;;;;11.55;9.05;;;;;;;9.11;80.23;97363.16;1699825;84;21011;-81
2021/09/21 06:44:39;;;;;;;11.18;8.58;;;;;;;9.12;80.00;97366.93;1679384;83;22110;-81
2021/09/21 06:47:04;;;;;;;9.23;7.33;;;;;;;9.13;80.18;97367.74;1672798;84;22243;-81
2021/09/21 06:49:30;;;;;;;12.20;8.43;;;;;;;9.16;79.40;97374.73;1696782;83;21115;-82
2021/09/21 06:51:57;;;;;;;10.55;7.78;;;;;;;9.16;79.63;97373.92;1686974;83;21043;-81
2021/09/21 06:54:24;;;;;;;9.55;7.90;;;;;;;9.19;79.99;97371.03;1682856;84;21057;-81
2021/09/21 06:56:49;;;;;;;8.60;7.40;;;;;;;9.21;80.01;97372.98;1684970;84;21114;-81
2021/09/21 06:59:15;;;;;;;10.93;8.33;;;;;;;9.24;80.45;97377.39;1687589;84;21079;-81
2021/09/21 07:01:41;;;;;;;9.28;8.28;;;;;;;9.25;79.45;97377.72;1667498;84;21478;-81
2021/09/21 07:04:06;;;;;;;9.63;7.97;;;;;;;9.30;79.39;97380.70;1665314;84;21112;-82
2021/09/21 07:06:32;;;;;;;9.43;7.85;;;;;;;9.40;79.66;97378.49;1660853;84;21046;-81
2021/09/21 07:08:58;;;;;;;10.38;8.28;;;;;;;9.43;79.51;97379.48;1689499;84;21024;-81
2021/09/21 07:11:24;;;;;;;10.48;8.85;;;;;;;9.45;79.88;97382.77;1704077;84;21391;-81
2021/09/21 07:13:50;;;;;;;13.55;9.05;;;;;;;9.49;79.31;97386.20;1704585;84;20989;-81
2021/09/21 07:16:15;;;;;;;11.85;9.93;;;;;;;9.53;78.66;97384.11;1685840;84;20950;-81
2021/09/21 07:18:41;;;;;;;12.93;10.25;;;;;;;9.52;78.91;97396.27;1678660;84;21012;-81
2021/09/21 07:21:07;;;;;;;12.30;9.90;;;;;;;9.46;78.64;97396.88;1676872;84;21046;-82
2021/09/21 07:23:34;;;;;;;13.68;10.45;;;;;;;9.43;79.08;97402.83;1676158;84;20947;-81
2021/09/21 07:26:00;;;;;;;12.58;10.00;;;;;;;9.45;79.39;97404.34;1658991;84;21031;-81
2021/09/21 07:28:25;;;;;;;11.93;10.20;;;;;;;9.53;79.41;97405.69;1654292;84;21099;-81
2021/09/21 07:30:51;;;;;;;13.10;10.85;;;;;;;9.57;79.67;97406.19;1682929;84;21099;-81
2021/09/21 07:33:17;;;;;;;13.30;10.82;;;;;;;9.58;78.95;97400.85;1703438;84;21026;-81
2021/09/21 07:35:44;;;;;;;16.45;11.63;;;;;;;9.59;78.71;97402.48;1655434;84;21360;-81
2021/09/21 07:38:10;;;;;;;15.75;12.65;;;;;;;9.66;78.79;97405.30;1655086;85;21076;-81
2021/09/21 07:40:36;;;;;;;13.62;11.12;;;;;;;9.76;79.25;97403.90;1679779;83;21434;-81
2021/09/21 07:43:04;;;;;;;14.20;10.45;;;;;;;9.84;78.50;97411.27;1660564;84;20967;-81
2021/09/21 07:45:32;;;;;;;11.97;10.35;;;;;;;9.84;77.88;97410.45;1651329;85;21076;-82
2021/09/21 07:47:58;;;;;;;13.72;11.55;;;;;;;9.86;78.33;97415.02;1677637;83;21006;-82
2021/09/21 07:50:25;;;;;;;15.50;11.93;;;;;;;9.97;78.61;97410.06;1677178;84;21090;-81
2021/09/21 07:52:54;;;;;;;15.28;11.55;;;;;;;10.08;78.62;97417.58;1676689;84;21018;-81
2021/09/21 07:55:20;;;;;;;15.23;12.25;;;;;;;10.11;78.02;97418.11;1669070;84;21076;-81
2021/09/21 07:57:46;;;;;;;12.40;10.20;;;;;;;10.15;78.41;97423.32;1664076;84;21404;-82
2021/09/21 08:00:14;;;;;;;15.05;10.93;;;;;;;10.22;77.69;97426.14;1674682;84;21017;-82
2021/09/21 08:02:40;;;;;;;14.45;10.80;;;;;;;10.32;77.54;97426.04;1683842;84;21377;-81
2021/09/21 08:05:07;;;;;;;11.18;9.28;;;;;;;10.36;77.63;97421.67;1667974;84;21080;-82
2021/09/21 08:07:32;;;;;;;13.62;9.05;;;;;;;10.45;77.44;97424.66;1666494;84;21437;-81
2021/09/21 08:09:59;;;;;;;12.18;8.85;;;;;;;10.53;76.94;97419.48;1679271;84;21068;-81
2021/09/21 08:12:26;;;;;;;10.78;8.78;;;;;;;10.58;76.06;97419.52;1682823;83;20976;-81
2021/09/21 08:14:53;;;;;;;11.97;8.93;;;;;;;10.51;76.18;97422.72;1704976;83;21408;-81
2021/09/21 08:17:22;;;;;;;12.60;8.65;;;;;;;10.63;76.73;97424.57;1670389;84;21041;-81
2021/09/21 08:19:47;;;;;;;10.82;8.85;;;;;;;10.80;76.63;97423.66;1669328;83;21393;-81
2021/09/21 08:22:12;;;;;;;11.05;9.08;;;;;;;10.88;76.15;97428.05;1698968;84;20997;-81
2021/09/21 08:24:38;;;;;;;11.63;8.98;;;;;;;10.88;75.94;97433.74;1624458;86;21065;-81
2021/09/21 08:27:04;;;;;;;15.35;13.45;;;;;;;10.90;76.02;97436.99;1607765;87;21055;-81
2021/09/21 08:29:30;;;;;;;32.67;25.00;;;;;;;10.97;75.67;97441.91;1642823;87;21035;-82
2021/09/21 08:31:57;;;;;;;24.12;17.48;;;;;;;10.97;75.73;97438.82;1637959;87;21100;-81
2021/09/21 08:34:23;;;;;;;43.10;36.85;;;;;;;11.00;75.99;97431.19;1623689;87;21381;-81
2021/09/21 08:36:51;;;;;;;21.35;16.80;;;;;;;11.03;75.57;97429.07;1612934;87;21067;-82
2021/09/21 08:39:18;;;;;;;13.85;11.35;;;;;;;11.02;75.52;97422.73;1646347;86;20986;-82
2021/09/21 08:41:43;;;;;;;13.83;11.10;;;;;;;11.05;75.89;97423.22;1687951;83;21145;-81
2021/09/21 08:44:10;;;;;;;12.90;10.50;;;;;;;11.11;75.71;97426.51;1665663;84;21035;-81
2021/09/21 08:46:36;;;;;;;13.68;10.43;;;;;;;11.08;76.03;97426.83;1670801;85;21035;-81
2021/09/21 08:49:02;;;;;;;13.93;10.55;;;;;;;11.08;75.95;97433.82;1688847;84;21021;-82
2021/09/21 08:51:28;;;;;;;12.90;10.18;;;;;;;11.13;75.54;97432.84;1699523;84;21028;-82
2021/09/21 08:53:53;;;;;;;11.78;9.70;;;;;;;11.16;75.46;97429.92;1677322;84;21342;-81
2021/09/21 08:56:20;;;;;;;11.83;9.00;;;;;;;11.29;74.95;97434.18;1666125;84;21156;-81
2021/09/21 08:59:04;;;;;;;12.63;9.25;;;;;;;11.37;75.00;97440.68;1669994;84;21072;-82
2021/09/21 09:01:47;;;;;;;12.88;9.55;;;;;;;11.40;75.00;97436.48;1677512;83;21111;-81
2021/09/21 09:04:15;;;;;;;11.35;9.03;;;;;;;11.42;74.84;97438.92;1675422;84;21146;-81
2021/09/21 09:06:55;;;;;;;12.47;9.00;;;;;;;11.37;74.45;97445.88;1687967;83;21559;-82
2021/09/21 09:09:22;;;;;;;11.08;8.38;;;;;;;11.32;73.71;97445.56;1669731;84;21006;-82
2021/09/21 09:11:50;;;;;;;9.15;7.53;;;;;;;11.28;74.36;97454.67;1689349;84;21105;-81
2021/09/21 09:14:25;;;;;;;12.03;9.00;;;;;;;11.24;73.64;97446.86;1633931;87;21052;-82
2021/09/21 09:17:06;;;;;;;13.20;9.98;;;;;;;11.16;73.74;97447.31;1639048;86;21054;-82
2021/09/21 09:19:39;;;;;;;13.53;9.93;;;;;;;11.17;74.12;97448.45;1687248;83;21078;-82
2021/09/21 09:22:14;;;;;;;11.28;8.38;;;;;;;11.27;74.31;97449.14;1689694;84;21575;-82
2021/09/21 09:25:04;;;;;;;12.05;10.15;;;;;;;11.33;73.65;97452.88;1690775;84;21043;-82
2021/09/21 09:27:44;;;;;;;11.95;9.23;;;;;;;11.35;73.32;97447.02;1681888;84;21060;-82
2021/09/21 09:30:14;;;;;;;12.95;9.10;;;;;;;11.38;73.21;97451.91;1696213;84;21013;-81
2021/09/21 09:32:56;;;;;;;11.90;9.63;;;;;;;11.46;74.37;97450.63;1674778;84;21085;-82
2021/09/21 09:35:28;;;;;;;14.18;9.53;;;;;;;11.58;73.30;97445.93;1693346;84;21061;-81
2021/09/21 09:37:57;;;;;;;12.47;9.28;;;;;;;11.71;73.63;97443.17;1678556;83;20989;-81
2021/09/21 09:40:22;;;;;;;11.70;8.38;;;;;;;11.84;73.67;97448.39;1697660;83;21058;-82
2021/09/21 09:42:49;;;;;;;9.53;7.05;;;;;;;11.84;74.01;97447.09;1697641;83;21099;-82
2021/09/21 09:45:26;;;;;;;11.38;7.10;;;;;;;11.74;71.90;97445.94;1677152;84;21020;-82
2021/09/21 09:47:53;;;;;;;8.75;6.53;;;;;;;11.72;71.95;97445.29;1683143;84;21054;-82
2021/09/21 09:50:21;;;;;;;7.33;5.25;;;;;;;11.89;71.44;97440.43;1688208;84;21031;-82
2021/09/21 09:52:47;;;;;;;6.83;5.35;;;;;;;11.94;71.32;97438.14;1697858;84;21510;-82
2021/09/21 09:55:13;;;;;;;8.63;6.58;;;;;;;11.88;71.89;97445.31;1678917;83;21062;-82
2021/09/21 09:57:41;;;;;;;10.08;7.28;;;;;;;11.75;70.50;97443.66;1675065;84;21057;-82
2021/09/21 10:00:08;;;;;;;8.73;6.25;;;;;;;11.57;70.38;97444.30;1676001;85;21462;-81
2021/09/21 10:02:34;;;;;;;7.75;6.08;;;;;;;11.65;71.02;97435.18;1647049;85;20981;-82
2021/09/21 10:05:00;;;;;;;8.33;6.08;;;;;;;11.75;70.67;97440.23;1679017;84;21076;-82
2021/09/21 10:07:26;;;;;;;8.83;5.97;;;;;;;11.80;69.32;97434.08;1670358;84;21135;-82
2021/09/21 10:09:52;;;;;;;9.25;5.65;;;;;;;11.90;69.42;97441.24;1665970;84;21009;-82
2021/09/21 10:12:18;;;;;;;6.95;5.62;;;;;;;11.94;69.98;97438.63;1678794;84;21512;-82
2021/09/21 10:14:44;;;;;;;9.23;5.55;;;;;;;12.07;69.49;97432.43;1677191;84;21108;-81
2021/09/21 10:17:10;;;;;;;6.87;5.45;;;;;;;12.19;69.64;97431.58;1699800;83;21036;-82
2021/09/21 10:19:40;;;;;;;14.60;12.00;;;;;;;12.29;68.38;97433.52;1637970;85;21052;-82
2021/09/21 10:22:07;;;;;;;10.45;7.53;;;;;;;12.36;68.13;97434.47;1624291;86;21101;-82
2021/09/21 10:24:42;;;;;;;7.60;5.97;;;;;;;12.43;68.38;97436.74;1685962;84;21029;-82
2021/09/21 10:27:12;;;;;;;7.35;5.62;;;;;;;12.54;68.90;97437.70;1683052;84;21138;-82
2021/09/21 10:29:39;;;;;;;6.65;5.42;;;;;;;12.60;70.60;97438.81;1671246;84;21080;-82
2021/09/21 10:32:13;;;;;;;7.83;5.25;;;;;;;12.65;68.80;97443.02;1701458;84;21045;-82
2021/09/21 10:34:42;;;;;;;7.55;5.87;;;;;;;12.66;68.24;97433.40;1682226;84;21131;-82
2021/09/21 10:37:08;;;;;;;8.90;6.28;;;;;;;12.63;67.24;97438.47;1678576;84;21088;-82
2021/09/21 10:39:35;;;;;;;6.40;5.55;;;;;;;12.55;67.37;97436.72;1672691;84;21065;-82
2021/09/21 10:42:06;;;;;;;7.83;5.78;;;;;;;12.46;68.05;97436.41;1691759;84;21068;-82
2021/09/21 10:44:32;;;;;;;7.55;5.80;;;;;;;12.40;68.45;97438.39;1687724;83;21398;-82
2021/09/21 10:47:05;;;;;;;9.43;6.22;;;;;;;12.60;68.43;97430.98;1682379;84;20989;-82
2021/09/21 10:49:41;;;;;;;7.22;5.37;;;;;;;12.84;67.97;97427.45;1698769;84;21015;-82
2021/09/21 10:52:13;;;;;;;6.92;5.40;;;;;;;12.84;68.37;97435.28;1687893;84;21029;-82
2021/09/21 10:54:54;;;;;;;;;;;;;;;12.72;65.42;97445.29;1680810;84;21375;-82
2021/09/21 10:57:35;;;;;;;8.23;5.72;;;;;;;12.55;65.68;97440.63;1655344;85;20136;-82
2021/09/21 11:00:07;;;;;;;7.08;5.67;;;;;;;12.41;66.12;97449.63;1669660;85;21140;-82
2021/09/21 11:02:39;;;;;;;7.75;5.53;;;;;;;12.33;66.57;97447.34;1677337;84;21024;-82
2021/09/21 11:05:08;;;;;;;7.70;5.47;;;;;;;12.33;66.25;97445.23;1692985;83;21045;-82
2021/09/21 11:07:37;;;;;;;7.12;5.08;;;;;;;12.35;67.03;97445.06;1671154;84;21001;-82
2021/09/21 11:10:03;;;;;;;8.68;5.80;;;;;;;12.34;67.24;97439.03;1677245;84;21031;-82
2021/09/21 11:12:29;;;;;;;7.42;5.67;;;;;;;12.35;67.15;97435.45;1689101;84;21048;-82
2021/09/21 11:14:57;;;;;;;9.03;6.58;;;;;;;12.39;66.45;97438.56;1663850;84;21018;-82
2021/09/21 11:17:26;;;;;;;9.03;6.05;;;;;;;12.41;67.39;97437.90;1675788;84;21100;-82
2021/09/21 11:19:55;;;;;;;7.72;5.70;;;;;;;12.45;67.06;97432.66;1672346;83;21361;-82
2021/09/21 11:22:26;;;;;;;7.50;5.67;;;;;;;12.51;67.02;97431.98;1667778;84;21414;-82
2021/09/21 11:24:49;;;;;;;6.45;5.30;;;;;;;12.47;65.92;97428.09;1686155;84;21441;-82
2021/09/21 11:27:15;;;;;;;7.35;5.90;;;;;;;12.37;66.32;97431.40;1693068;84;21077;-82
2021/09/21 11:29:41;;;;;;;8.93;5.62;;;;;;;12.34;66.53;97423.40;1679949;83;20992;-82
2021/09/21 11:32:17;;;;;;;6.20;5.03;;;;;;;12.51;66.78;97418.45;1698289;84;21045;-82
2021/09/21 11:34:43;;;;;;;6.67;5.17;;;;;;;12.70;66.51;97417.77;1678045;84;21143;-81
2021/09/21 11:37:11;;;;;;;7.58;5.58;;;;;;;12.86;64.86;97413.28;1692249;83;21016;-82
2021/09/21 11:39:38;;;;;;;6.28;4.72;;;;;;;12.93;65.87;97419.92;1697246;84;21009;-82
2021/09/21 11:42:03;;;;;;;7.35;5.00;;;;;;;13.11;65.55;97409.22;1676028;84;21024;-82
2021/09/21 11:44:38;;;;;;;7.97;5.25;;;;;;;13.30;65.84;97407.49;1642238;86;21015;-82
2021/09/21 11:47:04;;;;;;;7.85;5.00;;;;;;;13.52;65.63;97405.89;1619594;86;21015;-82
2021/09/21 11:49:29;;;;;;;5.97;4.55;;;;;;;13.66;65.02;97412.12;1657013;85;21028;-82